Decoded Metar for KFFM (FERGUS FALLS in MN, USA) (IATA:FFM) | Meteo·Mobile Aviation Weather
aviador You're here:

KFFM Decoded Metar

FERGUS FALLS in MN, USA
Report Time2019-04-19 22:05:00
UTC Time2019-04-19 22:24:22
Flight Rules vfr VFR
Wind190° at 12 kt
W.Decomp.*RWY 17: 11.6 kt HW 3.1 kt RCW
RWY 13: 6.9 kt HW 9.8 kt RCW
Visibility9999 m
Phenomena:N/A
Clouds:Scattered 050 Hf
Expected CloudBase > 4,800 ft AGL from Temp-Dew spread
CeilingNone
Temp16°C (ISA +3)
Dew Point04°C (45% RH)
AAT10.4°C
QNH1012 hPa
Density Alt1,726 ft
Elevation1,184 ft
Report Wrong Elevation
Raw Report
KFFM 192205Z AUTO 19012KT 10SM SCT050 16/04 A2987 RMK AO2=

Extra information for KFFM:More info

Metar Taf Metar & Taf Last 4 Metars F.Rules Stats Wind Profile Meteogram Temp Stats Airport Information Weather charts Add Link Nearby VenuesMetar ALERT Operation Metar Decoded Social comments

AIRNAV info for KFFM